Terminal Aerodrome Forecast
Issued by NWS

Home | Current Version | Previous Version | Text Only | Print | Product List | Glossary On
Versions: 1 2 3 4 5 6 7 8 9 10 11 12 13 14 15 16 17 18 19 20 21 22 23
000
FTUS43 KABR 202339
TAFATY
TAF
KATY 202339Z 2100/2124 28011KT P6SM FEW040
     FM210500 23005KT 4SM BR FEW110
     FM211000 17008KT P6SM FEW110
     FM211200 17010KT P6SM FEW150 WS020/22035KT
     FM211300 18010KT P6SM FEW200
     FM211800 23012KT P6SM FEW200
     FM212300 25008KT P6SM FEW250=

USA.gov is the U.S. government's official web portal to all federal, state and local government web resources and services.